Terminal Aerodrome Forecast
Issued by NWS Detroit/Pontiac, MI

Home | Current Version | Previous Version | Text Only | Print | Product List | Glossary On
Versions: 1 2 3 4 5 6 7 8 9 10 11 12 13 14 15 16 17 18 19 20 21 22 23 24 25 26 27 28
197
FTUS43 KDTX 100034 AAA
TAFDTW
TAF AMD
KDTW 100034Z 1001/1106 28013G20KT 6SM -SN BR OVC025
      TEMPO 1001/1002 4SM -SN BR OVC025
     FM100300 29013KT P6SM BKN025
     FM101100 30013KT 6SM -SHSN OVC025
     FM101700 30013G20KT 4SM -SHSN OVC025
     FM102200 30013KT 6SM -SHSN OVC025
     FM110200 31011KT P6SM SCT028 BKN035=

USA.gov is the U.S. government's official web portal to all federal, state and local government web resources and services.